Time;durP1;ratioP1;P1;durP2;ratioP2;P2;SDS_P1;SDS_P2;PMS_P1;PMS_P2;Temp;Humidity;BMP_temperature;BMP_pressure;BME280_temperature;BME280_humidity;BME280_pressure;Samples;Min_cycle;Max_cycle;Signal;HPM_P1;HPM_P2
2024/02/26 00:01:46;;;;;;;3.03;2.37;;;22.00;70.50;;;;;;4997090;28;20473;-69
2024/02/26 00:04:18;;;;;;;2.00;1.73;;;22.00;70.60;;;;;;5003304;28;20463;-69
2024/02/26 00:06:51;;;;;;;3.17;2.40;;;22.00;70.50;;;;;;5003786;28;21029;-70
2024/02/26 00:09:28;;;;;;;2.40;1.60;;;22.00;70.50;;;;;;4999266;28;20459;-68
2024/02/26 00:12:06;;;;;;;4.67;2.63;;;22.00;70.60;;;;;;5008825;28;20473;-71
2024/02/26 00:14:41;;;;;;;2.97;1.73;;;22.00;70.70;;;;;;4994415;28;20476;-70
2024/02/26 00:17:07;;;;;;;5.20;2.40;;;22.00;70.60;;;;;;4999537;28;20231;-69
2024/02/26 00:19:36;;;;;;;4.03;1.90;;;21.90;70.50;;;;;;4998015;28;20439;-68
2024/02/26 00:22:09;;;;;;;2.50;1.97;;;21.90;70.50;;;;;;4999209;28;20478;-68
2024/02/26 00:24:47;;;;;;;5.80;2.53;;;21.90;70.60;;;;;;4999340;28;20461;-68
2024/02/26 00:27:17;;;;;;;2.17;1.70;;;21.90;70.50;;;;;;4998065;28;20985;-70
2024/02/26 00:30:09;;;;;;;2.95;1.88;;;21.90;70.50;;;;;;4989465;28;20823;-70
2024/02/26 00:32:36;;;;;;;2.97;1.88;;;21.90;70.50;;;;;;4996548;28;20198;-68
2024/02/26 00:35:07;;;;;;;3.67;1.80;;;21.90;70.50;;;;;;5000515;28;20204;-68
2024/02/26 00:37:39;;;;;;;4.00;2.00;;;21.90;70.50;;;;;;4996930;28;20462;-68
2024/02/26 00:40:18;;;;;;;2.37;1.80;;;21.90;70.60;;;;;;5006663;28;20451;-69
2024/02/26 00:42:51;;;;;;;2.70;2.03;;;21.80;70.50;;;;;;5007948;28;20458;-68
2024/02/26 00:45:26;;;;;;;2.07;1.50;;;21.80;70.60;;;;;;5006406;28;20198;-68
2024/02/26 00:47:54;;;;;;;3.35;1.75;;;21.80;70.60;;;;;;5003228;28;20485;-68
2024/02/26 00:50:26;;;;;;;2.33;1.60;;;21.80;70.60;;;;;;5007154;28;20279;-69
2024/02/26 00:52:59;;;;;;;1.83;1.40;;;21.80;70.60;;;;;;5002561;28;20568;-68
2024/02/26 00:55:30;;;;;;;2.95;1.70;;;21.70;70.50;;;;;;5003406;28;20858;-68
2024/02/26 00:58:04;;;;;;;2.07;1.80;;;21.70;70.60;;;;;;5001790;28;20660;-68
2024/02/26 01:00:41;;;;;;;2.40;2.00;;;21.70;70.50;;;;;;5002500;28;20450;-68
2024/02/26 01:03:10;;;;;;;2.47;1.33;;;21.70;70.50;;;;;;5007517;28;20467;-68
2024/02/26 01:05:46;;;;;;;2.60;1.80;;;21.70;70.50;;;;;;5006248;28;20201;-68
2024/02/26 01:08:18;;;;;;;2.08;1.63;;;21.70;70.60;;;;;;5004750;28;20234;-69
2024/02/26 01:10:50;;;;;;;3.03;1.75;;;21.70;70.60;;;;;;5005482;28;20196;-68
2024/02/26 01:13:34;;;;;;;4.88;2.20;;;21.60;70.50;;;;;;5003786;28;20206;-69
2024/02/26 01:16:04;;;;;;;3.03;1.93;;;21.60;70.60;;;;;;4996449;28;20194;-68
2024/02/26 01:18:40;;;;;;;2.95;1.63;;;21.60;70.60;;;;;;4993685;28;20587;-67
2024/02/26 01:21:10;;;;;;;2.20;1.73;;;21.60;70.60;;;;;;4997519;28;20667;-70
2024/02/26 01:23:42;;;;;;;2.60;1.20;;;21.60;70.60;;;;;;5004947;28;20463;-68
2024/02/26 01:26:15;;;;;;;3.08;1.90;;;21.60;70.70;;;;;;5000808;28;20809;-68
2024/02/26 01:29:00;;;;;;;2.55;1.63;;;21.60;70.70;;;;;;5000989;28;20703;-66
2024/02/26 01:31:38;;;;;;;3.13;1.80;;;21.60;70.70;;;;;;4997718;28;20238;-68
2024/02/26 01:34:17;;;;;;;4.88;1.83;;;21.50;70.60;;;;;;5005600;28;20202;-69
2024/02/26 01:36:46;;;;;;;2.72;1.60;;;21.60;71.20;;;;;;4996476;28;20204;-67
2024/02/26 01:39:22;;;;;;;2.33;1.73;;;21.50;70.70;;;;;;5002616;28;20543;-66
2024/02/26 01:42:03;;;;;;;2.38;1.63;;;21.50;70.70;;;;;;5007638;28;20979;-68
2024/02/26 01:44:37;;;;;;;2.17;1.63;;;21.50;70.80;;;;;;5004458;28;20187;-69
2024/02/26 01:47:17;;;;;;;3.58;1.70;;;21.40;70.70;;;;;;4990196;28;20345;-68
2024/02/26 01:49:49;;;;;;;1.95;1.30;;;21.40;70.70;;;;;;5006969;28;20191;-69
2024/02/26 01:52:21;;;;;;;2.47;1.50;;;21.50;70.80;;;;;;5001995;28;20267;-68
2024/02/26 01:54:48;;;;;;;2.28;1.40;;;21.40;70.70;;;;;;4998413;28;20212;-68
2024/02/26 01:57:22;;;;;;;2.65;1.65;;;21.40;70.80;;;;;;5005997;28;20195;-68
2024/02/26 01:59:54;;;;;;;2.75;1.85;;;21.40;70.80;;;;;;4998181;28;20687;-69
2024/02/26 02:02:21;;;;;;;3.10;1.77;;;21.40;70.90;;;;;;4998213;28;20811;-68
2024/02/26 02:04:50;;;;;;;3.60;1.50;;;21.40;70.90;;;;;;4998840;28;20721;-69
2024/02/26 02:07:24;;;;;;;2.97;1.45;;;21.40;70.90;;;;;;5000214;28;20224;-67
2024/02/26 02:09:54;;;;;;;2.30;1.35;;;21.40;70.90;;;;;;5005532;28;20200;-69
2024/02/26 02:12:26;;;;;;;1.95;1.52;;;21.30;70.90;;;;;;5003240;28;20199;-67
2024/02/26 02:14:58;;;;;;;2.65;1.73;;;21.30;70.80;;;;;;5002319;28;20212;-68
2024/02/26 02:17:30;;;;;;;2.72;1.77;;;21.30;70.90;;;;;;5002759;28;20211;-70
2024/02/26 02:20:01;;;;;;;2.97;1.50;;;21.30;70.90;;;;;;5000227;28;20683;-67
2024/02/26 02:22:34;;;;;;;1.90;1.60;;;21.30;71.00;;;;;;5001528;28;20420;-66
2024/02/26 02:25:07;;;;;;;3.35;1.35;;;21.30;71.00;;;;;;5005164;28;20594;-69
2024/02/26 02:27:38;;;;;;;2.60;1.48;;;21.30;71.10;;;;;;5004040;28;20289;-66
2024/02/26 02:30:16;;;;;;;2.58;1.73;;;21.20;70.90;;;;;;5004064;28;20720;-69
2024/02/26 02:32:44;;;;;;;2.15;1.40;;;21.30;71.10;;;;;;5005112;28;20283;-70
2024/02/26 02:35:16;;;;;;;1.90;1.35;;;21.30;71.10;;;;;;5004746;28;20203;-67
2024/02/26 02:37:48;;;;;;;2.05;1.52;;;21.30;71.90;;;;;;5007696;28;20208;-69
2024/02/26 02:40:18;;;;;;;1.83;1.67;;;21.30;71.10;;;;;;5003604;28;20549;-70
2024/02/26 02:42:47;;;;;;;1.75;1.25;;;21.20;71.00;;;;;;5005723;28;20200;-68
2024/02/26 02:45:16;;;;;;;1.95;1.50;;;21.20;71.10;;;;;;5006625;28;20199;-70
2024/02/26 02:47:45;;;;;;;2.35;1.30;;;21.20;71.10;;;;;;5008647;28;20252;-68
2024/02/26 02:50:12;;;;;;;2.22;1.55;;;21.20;71.20;;;;;;5006781;28;20201;-69
2024/02/26 02:52:40;;;;;;;2.58;1.88;;;21.20;71.10;;;;;;5000389;28;20201;-69
2024/02/26 02:55:15;;;;;;;2.65;1.73;;;21.20;71.20;;;;;;5010385;28;20199;-68
2024/02/26 02:57:44;;;;;;;2.67;1.30;;;21.20;71.20;;;;;;5006967;28;20203;-68
2024/02/26 03:00:12;;;;;;;2.45;1.70;;;21.20;71.30;;;;;;4997498;28;20702;-68
2024/02/26 03:02:42;;;;;;;1.75;1.40;;;21.20;71.30;;;;;;5005895;28;20208;-69
2024/02/26 03:05:12;;;;;;;1.55;1.40;;;21.20;71.20;;;;;;4999179;28;20200;-67
2024/02/26 03:07:39;;;;;;;1.98;1.30;;;21.10;71.20;;;;;;5008236;28;20701;-68
2024/02/26 03:10:09;;;;;;;3.17;1.80;;;21.10;71.20;;;;;;4998969;28;20255;-68
2024/02/26 03:12:41;;;;;;;2.30;1.38;;;21.10;71.20;;;;;;5004002;28;20203;-69
2024/02/26 03:15:13;;;;;;;2.55;1.10;;;21.20;71.30;;;;;;5002371;28;20768;-69
2024/02/26 03:17:45;;;;;;;2.00;1.45;;;21.10;71.20;;;;;;5000559;28;20567;-68
2024/02/26 03:20:19;;;;;;;1.65;1.20;;;21.10;71.20;;;;;;4993939;28;20231;-68
2024/02/26 03:22:47;;;;;;;1.90;1.50;;;21.10;71.20;;;;;;5001348;28;20600;-68
2024/02/26 03:25:14;;;;;;;2.30;1.60;;;21.10;71.20;;;;;;5000172;28;20197;-70
2024/02/26 03:27:50;;;;;;;2.03;1.33;;;21.10;71.20;;;;;;5002477;28;20219;-69
2024/02/26 03:30:19;;;;;;;2.67;1.65;;;21.10;71.20;;;;;;5002447;28;20206;-69
2024/02/26 03:32:47;;;;;;;2.60;1.27;;;21.10;71.30;;;;;;5006140;28;20201;-68
2024/02/26 03:35:14;;;;;;;2.75;1.40;;;21.10;71.20;;;;;;4998401;28;20200;-68
2024/02/26 03:37:43;;;;;;;2.78;1.80;;;21.10;71.30;;;;;;5004996;28;20205;-68
2024/02/26 03:40:12;;;;;;;1.83;1.38;;;21.10;71.40;;;;;;5007974;28;20188;-68
2024/02/26 03:42:42;;;;;;;1.70;1.02;;;21.10;71.30;;;;;;5006773;28;20208;-68
2024/02/26 03:45:11;;;;;;;2.60;1.58;;;21.00;71.20;;;;;;5002691;28;20204;-69
2024/02/26 03:47:44;;;;;;;2.28;1.60;;;21.00;71.40;;;;;;4997361;28;20732;-67
2024/02/26 03:50:17;;;;;;;3.58;1.48;;;21.00;71.40;;;;;;5005251;28;20223;-67
2024/02/26 03:52:47;;;;;;;1.50;1.17;;;21.00;71.40;;;;;;5005248;28;20703;-69
2024/02/26 03:55:18;;;;;;;2.55;1.60;;;21.00;71.40;;;;;;5000483;28;20965;-67
2024/02/26 03:57:47;;;;;;;1.95;1.42;;;21.00;71.40;;;;;;4997842;28;20208;-70
2024/02/26 04:00:19;;;;;;;2.25;1.50;;;21.00;71.30;;;;;;4997555;28;20227;-68
2024/02/26 04:02:49;;;;;;;1.75;1.40;;;21.00;71.40;;;;;;5006720;28;20203;-68
2024/02/26 04:05:35;;;;;;;1.50;1.17;;;21.00;71.40;;;;;;5004051;28;20200;-68
2024/02/26 04:08:03;;;;;;;2.45;1.73;;;21.00;71.40;;;;;;5000409;28;20548;-68
2024/02/26 04:10:38;;;;;;;1.63;1.20;;;21.00;71.40;;;;;;5005590;28;20617;-69
2024/02/26 04:13:10;;;;;;;2.65;1.35;;;21.00;71.50;;;;;;5001780;28;20210;-70
2024/02/26 04:15:42;;;;;;;1.95;1.25;;;20.90;71.40;;;;;;4999783;28;20204;-68
2024/02/26 04:18:22;;;;;;;1.88;1.30;;;20.90;71.40;;;;;;5005547;28;20199;-68
2024/02/26 04:21:00;;;;;;;1.60;1.40;;;20.90;71.40;;;;;;5000089;28;20210;-69
2024/02/26 04:23:34;;;;;;;1.42;1.20;;;20.90;71.40;;;;;;4999990;28;20694;-66
2024/02/26 04:26:07;;;;;;;1.40;1.10;;;20.90;71.40;;;;;;5004825;28;20196;-68
2024/02/26 04:28:38;;;;;;;2.40;1.15;;;20.90;71.40;;;;;;5000772;28;20726;-68
2024/02/26 04:31:20;;;;;;;2.70;1.13;;;20.90;71.50;;;;;;5005651;28;20207;-69
2024/02/26 04:33:51;;;;;;;2.22;1.20;;;20.90;71.50;;;;;;5007343;28;20211;-69
2024/02/26 04:36:25;;;;;;;1.27;1.10;;;20.90;71.40;;;;;;5003351;28;20230;-68
2024/02/26 04:38:54;;;;;;;1.50;0.95;;;20.90;71.50;;;;;;5004502;28;20204;-68
2024/02/26 04:41:25;;;;;;;1.83;1.27;;;20.90;71.40;;;;;;5004738;28;20354;-68
2024/02/26 04:44:00;;;;;;;1.98;1.35;;;20.90;71.50;;;;;;5001942;28;20206;-68
2024/02/26 04:46:40;;;;;;;1.63;1.25;;;20.90;71.50;;;;;;5005546;28;20210;-69
2024/02/26 04:49:18;;;;;;;2.10;1.52;;;20.90;71.50;;;;;;5006380;28;20235;-69
2024/02/26 04:51:51;;;;;;;1.30;1.20;;;20.90;71.40;;;;;;5001076;28;20576;-68
2024/02/26 04:54:18;;;;;;;2.15;1.20;;;20.90;71.50;;;;;;5004280;28;20210;-69
2024/02/26 04:56:48;;;;;;;1.92;1.30;;;20.90;71.40;;;;;;5000714;28;20212;-68
2024/02/26 04:59:18;;;;;;;2.03;1.48;;;20.90;71.50;;;;;;5002324;28;20207;-68
2024/02/26 05:01:51;;;;;;;1.50;1.00;;;20.90;71.50;;;;;;5008516;28;20220;-70
2024/02/26 05:04:24;;;;;;;1.70;1.42;;;20.80;71.40;;;;;;5005937;28;20731;-70
2024/02/26 05:06:55;;;;;;;1.70;1.30;;;20.80;71.40;;;;;;5008308;28;20193;-69
2024/02/26 05:09:23;;;;;;;2.67;1.45;;;20.80;71.40;;;;;;5009225;28;20219;-69
2024/02/26 05:11:58;;;;;;;1.95;1.15;;;20.80;71.50;;;;;;5005908;28;20830;-68
2024/02/26 05:14:30;;;;;;;2.38;1.73;;;20.80;71.50;;;;;;4999972;28;20207;-70
2024/02/26 05:17:04;;;;;;;1.73;1.35;;;20.80;71.50;;;;;;5002496;28;20831;-69
2024/02/26 05:19:33;;;;;;;1.90;1.55;;;20.80;71.40;;;;;;5003462;28;20227;-67
2024/02/26 05:22:11;;;;;;;2.33;1.20;;;20.80;71.40;;;;;;5004052;28;20197;-69
2024/02/26 05:24:51;;;;;;;;;;;;;;;;;;;;;
2024/02/26 05:27:27;;;;;;;2.95;1.55;;;20.80;71.50;;;;;;5004976;28;20200;-69
2024/02/26 05:29:54;;;;;;;1.45;1.27;;;20.80;71.50;;;;;;5003113;28;20578;-68
2024/02/26 05:32:25;;;;;;;1.30;1.00;;;20.70;71.40;;;;;;5002566;28;20204;-69
2024/02/26 05:34:53;;;;;;;2.95;1.10;;;20.80;71.50;;;;;;5004053;28;20251;-69
2024/02/26 05:37:32;;;;;;;2.17;1.10;;;20.80;71.40;;;;;;5008580;28;20715;-69
2024/02/26 05:40:12;;;;;;;2.40;1.25;;;20.80;71.50;;;;;;5006168;28;20200;-68
2024/02/26 05:42:45;;;;;;;1.60;1.13;;;20.80;71.40;;;;;;5000190;28;20533;-69
2024/02/26 05:45:16;;;;;;;1.80;1.30;;;20.70;71.40;;;;;;4995345;28;20687;-69
2024/02/26 05:47:46;;;;;;;2.20;1.10;;;20.80;71.50;;;;;;5003213;28;20196;-70
2024/02/26 05:50:16;;;;;;;1.50;1.25;;;20.70;71.40;;;;;;4997098;28;20663;-70
2024/02/26 05:52:47;;;;;;;1.45;1.10;;;20.80;71.40;;;;;;5002417;28;20556;-69
2024/02/26 05:55:14;;;;;;;2.38;1.23;;;20.70;71.40;;;;;;5006458;28;20223;-69
2024/02/26 05:57:44;;;;;;;1.90;1.13;;;20.70;71.40;;;;;;5004728;28;20207;-68
2024/02/26 06:00:14;;;;;;;2.05;1.27;;;20.70;71.30;;;;;;5000704;28;20200;-70
2024/02/26 06:02:49;;;;;;;1.63;1.10;;;20.70;71.40;;;;;;5005536;28;20250;-69
2024/02/26 06:05:20;;;;;;;1.40;1.00;;;20.70;71.50;;;;;;5001955;28;20203;-68
2024/02/26 06:07:49;;;;;;;1.08;0.90;;;20.70;71.40;;;;;;4996284;28;20192;-68
2024/02/26 06:10:16;;;;;;;1.30;1.00;;;20.70;71.40;;;;;;5007304;28;20235;-69
2024/02/26 06:12:44;;;;;;;2.85;1.90;;;20.70;71.40;;;;;;5011983;28;20196;-69
2024/02/26 06:15:16;;;;;;;3.97;1.17;;;20.70;71.40;;;;;;5004850;28;20191;-67
2024/02/26 06:17:45;;;;;;;1.40;1.10;;;20.70;71.40;;;;;;5004125;28;21015;-69
2024/02/26 06:20:21;;;;;;;1.23;0.90;;;20.70;71.50;;;;;;5004716;28;20537;-67
2024/02/26 06:22:51;;;;;;;2.38;1.48;;;20.70;71.50;;;;;;4999088;28;20196;-69
2024/02/26 06:25:37;;;;;;;1.75;1.30;;;20.70;71.50;;;;;;5001918;28;20192;-69
2024/02/26 06:28:09;;;;;;;1.10;0.95;;;20.70;71.50;;;;;;5003453;28;20203;-69
2024/02/26 06:30:40;;;;;;;2.10;1.33;;;20.70;71.50;;;;;;5009341;28;20318;-69
2024/02/26 06:33:08;;;;;;;1.65;1.10;;;20.60;71.30;;;;;;5005033;28;20443;-68
2024/02/26 06:35:36;;;;;;;1.50;1.10;;;20.70;71.60;;;;;;5001770;28;20651;-68
2024/02/26 06:38:12;;;;;;;2.40;1.40;;;20.70;71.60;;;;;;5003252;28;20712;-70
2024/02/26 06:40:42;;;;;;;2.40;1.20;;;20.70;71.60;;;;;;5002002;28;20209;-69
2024/02/26 06:43:11;;;;;;;1.40;1.20;;;20.70;71.60;;;;;;5002385;28;20193;-67
2024/02/26 06:45:48;;;;;;;1.88;1.20;;;20.60;71.50;;;;;;5003621;28;20226;-69
2024/02/26 06:48:30;;;;;;;1.30;0.88;;;20.60;71.50;;;;;;5002737;28;20571;-67
2024/02/26 06:50:59;;;;;;;1.75;1.35;;;20.60;71.50;;;;;;4995758;28;20564;-70
2024/02/26 06:53:33;;;;;;;1.67;1.30;;;20.60;71.30;;;;;;5005627;28;20549;-68
2024/02/26 06:56:00;;;;;;;1.50;1.13;;;20.60;71.40;;;;;;4999674;28;20195;-67
2024/02/26 06:58:26;;;;;;;1.90;1.30;;;20.60;71.50;;;;;;4999867;28;20201;-68
2024/02/26 07:00:53;;;;;;;1.75;0.90;;;20.60;71.50;;;;;;5000912;28;20199;-68
2024/02/26 07:03:25;;;;;;;1.67;0.80;;;20.60;71.40;;;;;;5002683;28;20192;-66
2024/02/26 07:08:32;;;;;;;1.55;1.30;;;20.60;72.20;;;;;;5001854;28;20237;-68
2024/02/26 07:11:09;;;;;;;2.28;1.95;;;20.60;71.30;;;;;;4999534;28;20202;-67
2024/02/26 07:13:38;;;;;;;1.40;0.90;;;20.60;71.40;;;;;;5003429;28;20211;-68
2024/02/26 07:16:14;;;;;;;1.38;1.05;;;20.60;71.30;;;;;;5003183;28;20211;-68
2024/02/26 07:19:02;;;;;;;1.40;0.90;;;20.60;71.20;;;;;;5002633;28;20708;-68
2024/02/26 07:21:37;;;;;;;1.20;1.10;;;20.60;71.30;;;;;;4998565;28;20223;-69
2024/02/26 07:24:06;;;;;;;1.50;1.08;;;20.60;71.40;;;;;;5002700;28;20745;-67
2024/02/26 07:26:37;;;;;;;1.73;1.17;;;20.60;71.50;;;;;;5003919;28;20532;-67
2024/02/26 07:29:12;;;;;;;2.45;1.20;;;20.60;71.60;;;;;;5002678;28;20226;-68
2024/02/26 07:31:45;;;;;;;1.40;1.00;;;20.60;72.50;;;;;;5002110;28;20230;-68
2024/02/26 07:34:14;;;;;;;1.35;1.13;;;20.60;71.80;;;;;;4982182;28;20200;-67
2024/02/26 07:36:55;;;;;;;1.40;1.05;;;20.60;71.70;;;;;;5000973;28;20206;-67
2024/02/26 07:39:29;;;;;;;1.75;1.20;;;20.60;71.80;;;;;;5004475;28;20231;-65
2024/02/26 07:42:00;;;;;;;3.13;1.40;;;20.60;71.80;;;;;;5004714;28;20211;-67
2024/02/26 07:44:27;;;;;;;1.60;1.10;;;20.60;71.80;;;;;;4995656;28;20203;-68
2024/02/26 07:46:59;;;;;;;1.67;1.10;;;20.60;71.70;;;;;;5001949;28;20529;-68
2024/02/26 07:49:35;;;;;;;3.15;1.00;;;20.70;71.90;;;;;;4995056;28;20245;-67
2024/02/26 07:52:07;;;;;;;3.30;1.92;;;20.70;71.80;;;;;;4994844;28;20191;-67
2024/02/26 07:54:40;;;;;;;1.83;1.40;;;20.70;71.90;;;;;;5003242;28;20200;-68
2024/02/26 07:57:15;;;;;;;3.45;1.20;;;20.70;72.10;;;;;;5007349;28;20210;-67
2024/02/26 07:59:44;;;;;;;2.00;1.40;;;20.70;72.00;;;;;;4994786;28;21108;-67
2024/02/26 08:02:13;;;;;;;1.50;0.90;;;20.70;72.00;;;;;;5001916;28;20648;-67
2024/02/26 08:04:45;;;;;;;1.95;1.20;;;20.70;71.40;;;;;;5000070;28;20196;-69
2024/02/26 08:07:25;;;;;;;3.63;1.25;;;20.70;71.00;;;;;;4997334;28;20204;-67
2024/02/26 08:09:56;;;;;;;2.95;1.10;;;20.80;71.50;;;;;;4980523;28;20224;-67
2024/02/26 08:12:23;;;;;;;1.45;1.25;;;20.80;71.50;;;;;;4994599;28;20329;-68
2024/02/26 08:15:04;;;;;;;;;;;;;;;;;;;;;
2024/02/26 08:17:35;;;;;;;1.80;1.42;;;20.80;71.80;;;;;;5003270;28;20207;-68
2024/02/26 08:20:11;;;;;;;3.40;1.40;;;20.80;71.70;;;;;;5004972;28;20689;-67
2024/02/26 08:22:39;;;;;;;5.50;1.20;;;20.80;71.80;;;;;;5004492;28;20196;-67
2024/02/26 08:25:09;;;;;;;2.55;0.98;;;20.90;72.00;;;;;;4997840;28;20215;-67
2024/02/26 08:30:18;;;;;;;1.95;1.20;;;20.80;71.80;;;;;;4987496;28;20232;-66
2024/02/26 08:32:49;;;;;;;3.35;1.50;;;20.80;71.70;;;;;;4992351;28;20200;-67
2024/02/26 08:35:20;;;;;;;9.85;1.20;;;20.80;71.70;;;;;;4992353;28;20208;-67
2024/02/26 08:37:56;;;;;;;1.27;0.93;;;20.80;71.80;;;;;;4995316;28;20580;-68
2024/02/26 08:40:34;;;;;;;1.30;0.95;;;20.80;71.70;;;;;;4999368;28;20203;-68
2024/02/26 08:43:01;;;;;;;1.88;0.95;;;20.80;71.60;;;;;;4999733;28;20207;-67
2024/02/26 08:45:28;;;;;;;1.33;0.90;;;20.90;71.70;;;;;;4996019;28;20224;-68
2024/02/26 08:47:58;;;;;;;1.55;1.25;;;20.80;71.60;;;;;;4999718;28;20653;-66
2024/02/26 08:50:29;;;;;;;1.70;1.00;;;20.80;71.60;;;;;;4995219;28;20290;-67
2024/02/26 08:53:07;;;;;;;1.75;1.13;;;20.80;71.60;;;;;;4998528;28;20751;-66
2024/02/26 08:55:38;;;;;;;1.77;1.10;;;20.80;71.60;;;;;;5004632;28;20204;-67
2024/02/26 08:58:09;;;;;;;2.05;1.20;;;20.80;71.60;;;;;;4994982;28;20207;-67
2024/02/26 09:00:38;;;;;;;3.47;1.10;;;20.70;71.50;;;;;;5004489;28;20197;-66
2024/02/26 09:03:10;;;;;;;1.50;1.00;;;20.80;71.60;;;;;;5001545;28;20223;-67
2024/02/26 09:05:46;;;;;;;1.98;1.00;;;20.80;71.70;;;;;;5005063;28;20218;-66
2024/02/26 09:08:20;;;;;;;2.08;1.30;;;20.80;71.70;;;;;;5006837;28;20229;-67
2024/02/26 09:10:55;;;;;;;1.85;1.35;;;20.70;71.70;;;;;;5005739;28;20520;-67
2024/02/26 09:13:25;;;;;;;1.50;1.10;;;20.80;71.80;;;;;;4998267;28;20249;-66
2024/02/26 09:16:02;;;;;;;1.45;1.00;;;20.80;71.80;;;;;;4999368;28;20512;-66
2024/02/26 09:18:29;;;;;;;1.90;1.00;;;20.80;71.90;;;;;;5003301;28;20203;-66
2024/02/26 09:21:09;;;;;;;1.48;1.38;;;20.90;72.00;;;;;;5005534;28;20335;-67
2024/02/26 09:23:51;;;;;;;;;;;;;;;;;;;;;
2024/02/26 09:26:23;;;;;;;1.85;1.40;;;20.90;72.30;;;;;;5000416;28;20744;-67
2024/02/26 09:28:50;;;;;;;2.00;1.30;;;20.90;72.00;;;;;;5003509;28;20196;-67
2024/02/26 09:31:25;;;;;;;1.42;1.25;;;20.90;71.90;;;;;;5003538;28;20197;-68
2024/02/26 09:33:51;;;;;;;1.17;1.05;;;20.90;72.00;;;;;;5005100;28;20184;-67
2024/02/26 09:36:21;;;;;;;1.40;0.90;;;20.90;71.90;;;;;;5002500;28;20201;-66
2024/02/26 09:38:51;;;;;;;1.40;1.20;;;20.90;71.90;;;;;;4997778;28;20196;-68
2024/02/26 09:41:28;;;;;;;1.23;0.93;;;20.90;71.80;;;;;;4998220;28;20462;-66
2024/02/26 09:44:05;;;;;;;1.10;0.90;;;20.90;71.80;;;;;;4996772;28;20199;-67
2024/02/26 09:46:35;;;;;;;1.45;0.90;;;20.90;72.00;;;;;;5002029;28;20658;-66
2024/02/26 09:49:07;;;;;;;1.80;1.00;;;20.90;71.80;;;;;;4999416;28;20279;-66
2024/02/26 09:51:47;;;;;;;1.27;0.98;;;20.90;71.80;;;;;;4994975;28;20709;-66
2024/02/26 09:54:22;;;;;;;1.65;1.00;;;20.90;71.80;;;;;;5001706;28;20192;-65
2024/02/26 09:56:53;;;;;;;2.40;1.00;;;20.90;72.00;;;;;;4996232;28;20207;-68
2024/02/26 09:59:24;;;;;;;1.83;1.03;;;20.90;72.20;;;;;;4999702;28;20203;-67
2024/02/26 10:01:54;;;;;;;1.50;1.17;;;20.90;72.50;;;;;;4999177;28;20464;-62
2024/02/26 10:04:29;;;;;;;1.40;1.30;;;20.90;70.10;;;;;;4992985;28;22863;-64
2024/02/26 10:07:02;;;;;;;8.88;1.40;;;20.80;64.20;;;;;;4994336;28;20211;-65
2024/02/26 10:09:30;;;;;;;2.28;1.55;;;20.60;61.80;;;;;;5007441;28;20217;-63
2024/02/26 10:12:03;;;;;;;2.58;1.67;;;20.50;59.20;;;;;;5000157;28;20731;-63
2024/02/26 10:14:29;;;;;;;1.40;1.20;;;20.30;57.60;;;;;;4998440;28;20255;-68
2024/02/26 10:16:58;;;;;;;1.55;1.23;;;20.20;57.60;;;;;;5003310;28;20251;-66
2024/02/26 10:19:29;;;;;;;7.45;1.60;;;20.20;56.90;;;;;;5007968;28;20580;-70
2024/02/26 10:22:00;;;;;;;1.60;1.50;;;20.10;55.80;;;;;;5003849;28;20490;-65
2024/02/26 10:24:38;;;;;;;1.80;1.30;;;20.00;55.40;;;;;;5007692;28;20196;-64
2024/02/26 10:27:06;;;;;;;1.95;1.60;;;20.00;55.40;;;;;;5008301;28;20211;-66
2024/02/26 10:29:33;;;;;;;3.20;2.00;;;19.90;54.90;;;;;;5006636;28;20212;-67
2024/02/26 10:32:00;;;;;;;2.95;2.10;;;19.90;54.20;;;;;;5004241;28;20208;-64
2024/02/26 10:34:29;;;;;;;2.70;1.88;;;19.80;54.70;;;;;;5007398;28;20200;-60
2024/02/26 10:36:59;;;;;;;1.65;1.17;;;19.70;54.40;;;;;;5004600;28;20198;-61
2024/02/26 10:39:30;;;;;;;2.03;1.67;;;19.80;55.70;;;;;;5006127;28;20197;-60
2024/02/26 10:42:09;;;;;;;2.00;1.48;;;19.90;57.00;;;;;;5008644;28;20192;-61
2024/02/26 10:44:42;;;;;;;4.55;1.33;;;20.10;57.60;;;;;;5006875;28;20839;-60
2024/02/26 10:47:10;;;;;;;2.70;1.40;;;20.20;58.20;;;;;;5004601;28;20200;-58
2024/02/26 10:49:37;;;;;;;1.42;1.30;;;20.30;58.80;;;;;;5005292;28;20767;-64
2024/02/26 10:52:13;;;;;;;2.10;1.13;;;20.40;59.30;;;;;;5006093;28;20866;-65
2024/02/26 10:55:00;;;;;;;2.55;1.20;;;20.50;59.70;;;;;;5005918;28;20208;-61
2024/02/26 10:57:38;;;;;;;1.80;1.40;;;20.60;60.00;;;;;;5002750;28;20756;-65
2024/02/26 11:00:17;;;;;;;1.60;1.20;;;20.60;60.40;;;;;;5007979;28;20272;-61
2024/02/26 11:02:46;;;;;;;2.88;1.52;;;20.70;61.10;;;;;;5009641;28;20635;-64
2024/02/26 11:05:15;;;;;;;2.03;1.42;;;20.70;61.50;;;;;;5008715;28;20204;-64
2024/02/26 11:07:57;;;;;;;1.75;1.40;;;20.80;62.00;;;;;;5006613;28;20202;-63
2024/02/26 11:10:31;;;;;;;3.55;1.23;;;20.80;62.20;;;;;;4999498;28;20216;-75
2024/02/26 11:13:17;;;;;;;;;;;;;;;;;;;;;
2024/02/26 11:15:57;;;;;;;2.20;1.23;;;20.90;62.70;;;;;;5000289;28;20204;-65
2024/02/26 11:18:34;;;;;;;2.55;1.63;;;21.00;63.40;;;;;;5001105;28;20246;-68
2024/02/26 11:21:08;;;;;;;1.80;1.15;;;21.10;63.50;;;;;;5003332;28;20319;-66
2024/02/26 11:23:40;;;;;;;1.10;0.98;;;21.00;63.60;;;;;;5007260;28;20286;-65
2024/02/26 11:26:12;;;;;;;1.90;1.38;;;21.00;63.70;;;;;;5000842;28;20187;-65
2024/02/26 11:28:45;;;;;;;1.10;0.90;;;21.10;64.00;;;;;;4998710;28;20201;-67
2024/02/26 11:31:18;;;;;;;2.33;1.15;;;21.10;64.20;;;;;;5002023;28;20231;-75
2024/02/26 11:33:54;;;;;;;1.40;0.90;;;21.20;64.50;;;;;;5006875;28;20203;-77
2024/02/26 11:36:24;;;;;;;1.25;1.15;;;21.20;64.60;;;;;;5006246;28;20291;-70
2024/02/26 11:38:55;;;;;;;2.25;1.00;;;21.20;64.70;;;;;;5004795;28;24254;-72
2024/02/26 11:41:29;;;;;;;1.30;1.05;;;21.20;64.70;;;;;;5000325;28;20196;-71
2024/02/26 11:44:08;;;;;;;1.50;1.10;;;21.20;64.90;;;;;;5004542;28;20203;-70
2024/02/26 11:46:42;;;;;;;2.95;1.70;;;21.30;65.10;;;;;;5003354;28;20450;-67
2024/02/26 11:49:33;;;;;;;1.80;1.00;;;21.20;65.10;;;;;;5000481;28;20207;-68
2024/02/26 11:52:06;;;;;;;2.70;1.30;;;21.20;65.10;;;;;;5004672;28;20196;-70
2024/02/26 11:54:52;;;;;;;4.23;1.23;;;21.30;65.40;;;;;;5001230;28;20466;-70
2024/02/26 11:57:25;;;;;;;1.20;1.10;;;21.30;65.40;;;;;;5006173;28;20993;-70
2024/02/26 11:59:55;;;;;;;1.27;1.00;;;21.30;65.60;;;;;;4989133;28;20778;-67
2024/02/26 12:02:48;;;;;;;1.30;1.00;;;21.30;65.60;;;;;;5005311;28;21041;-66
2024/02/26 12:05:23;;;;;;;2.00;1.38;;;21.30;65.70;;;;;;5005663;28;20314;-66
2024/02/26 12:07:56;;;;;;;1.20;0.90;;;21.30;65.80;;;;;;5011160;28;20200;-70
2024/02/26 12:10:34;;;;;;;1.52;1.17;;;21.30;65.90;;;;;;5005018;28;20271;-67
2024/02/26 12:13:03;;;;;;;3.30;1.08;;;21.30;66.00;;;;;;5007783;28;20207;-78
2024/02/26 12:15:38;;;;;;;1.40;1.30;;;21.30;66.00;;;;;;5005155;28;20208;-73
2024/02/26 12:18:10;;;;;;;2.15;1.27;;;21.40;66.20;;;;;;5004416;28;20548;-70
2024/02/26 12:20:41;;;;;;;1.20;0.95;;;21.40;66.30;;;;;;5005769;28;20195;-68
2024/02/26 12:23:09;;;;;;;1.10;0.85;;;21.40;66.40;;;;;;5009856;28;20553;-70
2024/02/26 12:25:37;;;;;;;1.10;1.00;;;21.30;66.40;;;;;;5009601;28;20193;-69
2024/02/26 12:28:09;;;;;;;1.43;1.00;;;21.40;66.50;;;;;;5007057;28;20458;-70
2024/02/26 12:30:38;;;;;;;1.40;1.20;;;21.40;66.60;;;;;;5002532;28;20573;-72
2024/02/26 12:33:16;;;;;;;1.13;0.87;;;21.40;66.70;;;;;;5007511;28;20454;-68
2024/02/26 12:36:02;;;;;;;1.83;1.30;;;21.50;66.80;;;;;;5002605;28;20469;-68
2024/02/26 12:38:38;;;;;;;1.30;1.10;;;21.40;66.70;;;;;;5005862;28;20208;-68
2024/02/26 12:41:07;;;;;;;1.30;1.17;;;21.50;67.00;;;;;;5008156;28;20204;-70
2024/02/26 12:43:39;;;;;;;1.48;1.15;;;21.50;67.00;;;;;;5005474;28;20463;-74
2024/02/26 12:46:34;;;;;;;2.77;1.80;;;21.60;67.20;;;;;;4996931;28;20205;-73
2024/02/26 12:49:03;;;;;;;1.48;1.00;;;21.50;65.90;;;;;;5000729;28;20492;-74
2024/02/26 12:51:30;;;;;;;1.83;1.10;;;21.40;66.80;;;;;;4999074;28;20330;-73
2024/02/26 12:53:57;;;;;;;1.63;1.10;;;21.50;66.80;;;;;;5003730;28;21958;-72
2024/02/26 12:56:37;;;;;;;4.00;1.20;;;21.60;66.90;;;;;;5001355;28;20791;-75
2024/02/26 12:59:06;;;;;;;2.30;1.10;;;21.60;67.00;;;;;;4989138;28;21190;-75
2024/02/26 13:04:17;;;;;;;1.40;1.07;;;21.70;67.10;;;;;;4977971;28;20820;-72
2024/02/26 13:06:55;;;;;;;1.10;0.90;;;21.60;67.10;;;;;;4994240;28;20502;-70
2024/02/26 13:09:27;;;;;;;1.60;1.00;;;21.70;68.00;;;;;;5004313;28;20463;-78
2024/02/26 13:12:09;;;;;;;2.17;1.40;;;21.70;67.20;;;;;;5005931;28;20491;-74
2024/02/26 13:14:47;;;;;;;1.23;1.00;;;21.70;67.20;;;;;;4999238;28;20513;-75
2024/02/26 13:17:22;;;;;;;1.75;1.10;;;21.70;67.30;;;;;;5003874;28;20443;-73
2024/02/26 13:19:55;;;;;;;1.00;0.83;;;21.70;67.30;;;;;;4996886;28;20936;-79
2024/02/26 13:22:25;;;;;;;1.30;1.00;;;21.70;67.30;;;;;;4987958;28;20811;-74
2024/02/26 13:25:02;;;;;;;1.20;0.90;;;21.70;67.40;;;;;;4998924;28;20455;-73
2024/02/26 13:27:31;;;;;;;1.30;1.10;;;21.70;67.50;;;;;;4995359;28;20470;-67